Time;durP1;ratioP1;P1;durP2;ratioP2;P2;SDS_P1;SDS_P2;PMS_P1;PMS_P2;Temp;Humidity;BMP_temperature;BMP_pressure;BME280_temperature;BME280_humidity;BME280_pressure;Samples;Min_cycle;Max_cycle;Signal;HPM_P1;HPM_P2
2022/12/02 00:01:15;;;;;;;96.40;38.40;;;;;;;-145.18;100.00;46705.31;5031872;28;20291;-76
2022/12/02 00:03:41;;;;;;;95.00;36.97;;;;;;;-145.18;100.00;46703.38;5031775;28;20267;-76
2022/12/02 00:06:18;;;;;;;92.67;37.57;;;;;;;-145.18;100.00;46703.38;5032068;28;20077;-76
2022/12/02 00:08:43;;;;;;;94.93;38.47;;;;;;;-145.18;100.00;46693.59;5031977;28;20048;-76
2022/12/02 00:11:30;;;;;;;103.00;39.33;;;;;;;-145.18;100.00;46707.28;5014137;28;20306;-76
2022/12/02 00:14:01;;;;;;;96.13;40.30;;;;;;;-145.18;100.00;46697.50;5031637;28;20504;-76
2022/12/02 00:16:27;;;;;;;100.63;39.43;;;;;;;-145.18;100.00;46713.13;5031826;28;20770;-76
2022/12/02 00:18:53;;;;;;;93.17;38.00;;;;;;;-145.18;100.00;46709.22;5031730;28;20263;-76
2022/12/02 00:21:19;;;;;;;101.57;38.10;;;;;;;-145.18;100.00;46689.69;5031762;28;20156;-76
2022/12/02 00:23:45;;;;;;;95.73;39.17;;;;;;;-145.18;100.00;46693.59;5013535;28;20725;-76
2022/12/02 00:26:11;;;;;;;101.37;41.07;;;;;;;-145.18;100.00;46711.19;5013754;28;20029;-76
2022/12/02 00:28:36;;;;;;;95.93;37.97;;;;;;;-145.18;100.00;46711.19;5031525;28;20412;-76
2022/12/02 00:31:01;;;;;;;97.47;39.13;;;;;;;-145.18;100.00;46703.38;5031339;28;20037;-76
2022/12/02 00:33:27;;;;;;;98.40;38.93;;;;;;;-145.18;100.00;46699.47;5031450;28;20104;-76
2022/12/02 00:35:52;;;;;;;91.53;37.17;;;;;;;-145.18;100.00;46705.31;5013462;28;20393;-76
2022/12/02 00:38:17;;;;;;;96.00;38.60;;;;;;;-145.18;100.00;46707.28;5031441;28;20038;-76
2022/12/02 00:40:43;;;;;;;94.67;38.47;;;;;;;-145.18;100.00;46699.47;5031103;28;20533;-76
2022/12/02 00:48:37;;;;;;;99.73;38.70;;;;;;;-145.18;100.00;46713.13;5030851;28;20286;-76
2022/12/02 00:51:03;;;;;;;104.47;40.00;;;;;;;-145.18;100.00;46703.38;5030917;28;20263;-77
2022/12/02 00:53:29;;;;;;;102.50;39.37;;;;;;;-145.18;100.00;46703.38;5031088;28;20419;-76
2022/12/02 00:55:54;;;;;;;99.77;38.63;;;;;;;-145.18;100.00;46713.13;5013022;28;20266;-76
2022/12/02 00:58:20;;;;;;;97.43;38.00;;;;;;;-145.18;100.00;46699.47;5031148;28;20037;-76
2022/12/02 01:00:45;;;;;;;105.57;40.77;;;;;;;-145.18;100.00;46707.28;5030905;28;20478;-76
2022/12/02 01:03:10;;;;;;;103.10;38.20;;;;;;;-145.18;100.00;46695.56;5030829;28;20112;-76
2022/12/02 01:05:36;;;;;;;99.33;39.43;;;;;;;-145.18;100.00;46705.31;5031016;28;20721;-76
2022/12/02 01:08:01;;;;;;;104.13;40.53;;;;;;;-145.18;100.00;46709.22;5012758;28;20040;-76
2022/12/02 01:10:27;;;;;;;98.40;39.60;;;;;;;-145.18;100.00;46709.22;5030885;28;20506;-76
2022/12/02 01:12:52;;;;;;;98.37;37.40;;;;;;;-145.18;100.00;46699.47;5030407;28;20071;-76
2022/12/02 01:15:18;;;;;;;93.63;39.80;;;;;;;-145.18;100.00;46711.19;5031005;28;20033;-76
2022/12/02 01:17:43;;;;;;;99.97;39.20;;;;;;;-145.18;100.00;46715.09;5030381;28;20064;-76
2022/12/02 01:20:09;;;;;;;101.23;39.90;;;;;;;-145.18;100.00;46703.38;5030849;28;20026;-76
2022/12/02 01:22:34;;;;;;;106.83;42.00;;;;;;;-145.18;100.00;46707.28;5029323;28;20033;-76
2022/12/02 01:24:59;;;;;;;88.40;38.57;;;;;;;-145.18;100.00;46703.38;5030610;28;20043;-76
2022/12/02 01:27:25;;;;;;;104.77;41.00;;;;;;;-145.18;100.00;46705.31;5030495;28;20120;-76
2022/12/02 01:29:50;;;;;;;100.67;41.13;;;;;;;-145.18;100.00;46711.19;5030460;28;20073;-76
2022/12/02 01:32:18;;;;;;;107.50;42.37;;;;;;;-145.18;100.00;46703.38;5030487;28;20041;-76
2022/12/02 01:34:43;;;;;;;97.23;39.43;;;;;;;-145.18;100.00;46699.47;5030129;28;20030;-76
2022/12/02 01:37:08;;;;;;;105.77;41.13;;;;;;;-145.18;100.00;46707.28;5030448;28;20278;-76
2022/12/02 01:39:34;;;;;;;107.23;41.80;;;;;;;-145.18;100.00;46707.28;5030591;28;20045;-76
2022/12/02 01:41:59;;;;;;;101.30;41.17;;;;;;;-145.18;100.00;46709.22;5030280;28;20463;-76
2022/12/02 01:44:25;;;;;;;112.90;42.33;;;;;;;-145.18;100.00;46705.31;5030713;28;20045;-76
2022/12/02 01:46:51;;;;;;;107.27;44.07;;;;;;;-145.18;100.00;46705.31;5030046;28;20057;-76
2022/12/02 01:49:17;;;;;;;108.67;42.97;;;;;;;-145.18;100.00;46707.28;5030524;28;20065;-75
2022/12/02 01:51:43;;;;;;;118.30;44.87;;;;;;;-145.18;100.00;46707.28;5030404;28;20053;-76
2022/12/02 01:54:08;;;;;;;109.50;43.40;;;;;;;-145.18;100.00;46703.38;5030319;28;20298;-76
2022/12/02 01:56:33;;;;;;;114.43;45.17;;;;;;;-145.18;100.00;46703.38;5030445;28;20038;-76
2022/12/02 01:58:59;;;;;;;110.03;42.97;;;;;;;-145.18;100.00;46705.31;5030542;28;20457;-76
2022/12/02 02:01:27;;;;;;;115.07;44.80;;;;;;;-145.18;100.00;46699.47;5030169;28;20033;-76
2022/12/02 02:03:53;;;;;;;114.87;45.63;;;;;;;-145.18;100.00;46703.38;5030147;28;20496;-76
2022/12/02 02:06:18;;;;;;;112.50;44.00;;;;;;;-145.18;100.00;46695.56;5030263;28;20350;-77
2022/12/02 02:08:44;;;;;;;122.37;45.97;;;;;;;-145.18;100.00;46705.31;5030364;28;20116;-76
2022/12/02 02:11:09;;;;;;;116.27;45.10;;;;;;;-145.18;100.00;46707.28;5030211;28;20437;-76
2022/12/02 02:13:35;;;;;;;113.73;44.90;;;;;;;-145.18;100.00;46697.50;5030219;28;20441;-76
2022/12/02 02:16:00;;;;;;;121.80;46.10;;;;;;;-145.18;100.00;46707.28;5030173;28;20030;-76
2022/12/02 02:18:26;;;;;;;111.70;45.03;;;;;;;-145.18;100.00;46697.50;5030071;28;20029;-76
2022/12/02 02:20:54;;;;;;;115.20;47.17;;;;;;;-145.18;100.00;46709.22;5030186;28;20041;-76
2022/12/02 02:23:24;;;;;;;112.07;44.73;;;;;;;-145.18;100.00;46711.19;5029859;28;20087;-76
2022/12/02 02:25:54;;;;;;;118.77;46.40;;;;;;;-145.18;100.00;46707.28;5029984;28;20354;-76
2022/12/02 02:28:23;;;;;;;123.60;48.03;;;;;;;-145.18;100.00;46707.28;5029957;28;20275;-76
2022/12/02 02:30:50;;;;;;;117.57;45.63;;;;;;;-145.18;100.00;46709.22;5030188;28;20262;-77
2022/12/02 02:33:16;;;;;;;128.57;49.07;;;;;;;-145.18;100.00;46719.00;5029950;28;20337;-76
2022/12/02 02:35:43;;;;;;;113.20;43.93;;;;;;;-145.18;100.00;46711.19;5029934;28;20275;-76
2022/12/02 02:38:13;;;;;;;124.10;47.67;;;;;;;-145.18;100.00;46699.47;5012079;28;20076;-76
2022/12/02 02:40:39;;;;;;;127.60;48.87;;;;;;;-145.18;100.00;46705.31;5029973;28;20271;-76
2022/12/02 02:43:05;;;;;;;134.20;48.13;;;;;;;-145.18;100.00;46701.41;5029944;28;20277;-76
2022/12/02 02:45:33;;;;;;;134.83;50.60;;;;;;;-145.18;100.00;46699.47;5030065;28;20088;-76
2022/12/02 02:47:59;;;;;;;134.87;48.77;;;;;;;-145.18;100.00;46717.03;5032811;28;20045;-76
2022/12/02 02:50:26;;;;;;;141.77;51.83;;;;;;;-145.18;100.00;46705.31;5033328;28;20408;-76
2022/12/02 02:52:52;;;;;;;132.20;48.90;;;;;;;-145.18;100.00;46709.22;5033186;28;20279;-76
2022/12/02 02:55:20;;;;;;;139.97;51.00;;;;;;;-145.18;100.00;46707.28;5033285;28;20278;-76
2022/12/02 02:57:46;;;;;;;149.57;50.73;;;;;;;-145.18;100.00;46707.28;5032862;28;20041;-76
2022/12/02 03:02:54;;;;;;;163.33;55.00;;;;;;;-145.18;100.00;46711.19;5305718;22;20050;-77
2022/12/02 03:05:21;;;;;;;153.37;53.03;;;;;;;-145.18;100.00;46719.00;5011616;28;20369;-77
2022/12/02 03:07:47;;;;;;;146.43;50.83;;;;;;;-145.18;100.00;46711.19;5013221;28;20670;-78
2022/12/02 03:10:13;;;;;;;137.37;49.83;;;;;;;-145.18;100.00;46707.28;5013210;28;20279;-78
2022/12/02 03:12:39;;;;;;;140.37;50.97;;;;;;;-145.18;100.00;46715.09;5013382;28;20271;-78
2022/12/02 03:15:05;;;;;;;149.77;49.83;;;;;;;-145.18;100.00;46703.38;5013411;28;20038;-77
2022/12/02 03:17:31;;;;;;;160.10;53.37;;;;;;;-145.18;100.00;46703.38;5013232;28;20038;-78
2022/12/02 03:19:56;;;;;;;135.27;50.30;;;;;;;-145.18;100.00;46705.31;5013050;28;20275;-78
2022/12/02 03:22:22;;;;;;;139.63;51.73;;;;;;;-145.18;100.00;46707.28;5013260;28;20471;-78
2022/12/02 03:24:48;;;;;;;150.33;50.97;;;;;;;-145.18;100.00;46705.31;5013237;28;20375;-77
2022/12/02 03:27:14;;;;;;;139.43;50.47;;;;;;;-145.18;100.00;46713.13;5012737;28;20041;-77
2022/12/02 03:29:40;;;;;;;139.70;49.73;;;;;;;-145.18;100.00;46715.09;5013310;28;20129;-77
2022/12/02 03:32:09;;;;;;;144.83;53.40;;;;;;;-145.18;100.00;46703.38;5012737;28;20038;-77
2022/12/02 03:34:36;;;;;;;142.13;52.50;;;;;;;-145.18;100.00;46697.50;5012976;28;20267;-77
2022/12/02 03:37:02;;;;;;;130.17;48.90;;;;;;;-145.18;100.00;46713.13;5012766;28;20290;-78
2022/12/02 03:39:27;;;;;;;133.73;50.67;;;;;;;-145.18;100.00;46713.13;5012939;28;20307;-77
2022/12/02 03:41:53;;;;;;;138.77;49.40;;;;;;;-145.18;100.00;46709.22;5012554;28;20034;-77
2022/12/02 03:44:19;;;;;;;142.47;52.17;;;;;;;-145.18;100.00;46717.03;5011889;28;20045;-77
2022/12/02 03:46:46;;;;;;;129.97;45.50;;;;;;;-145.18;100.00;46713.13;5012476;28;20449;-77
2022/12/02 03:49:12;;;;;;;140.20;53.00;;;;;;;-145.18;100.00;46703.38;5012523;28;20045;-77
2022/12/02 03:51:38;;;;;;;136.20;50.47;;;;;;;-145.18;100.00;46709.22;5012778;28;20272;-77
2022/12/02 03:54:04;;;;;;;127.23;49.10;;;;;;;-145.18;100.00;46713.13;5012316;28;20310;-77
2022/12/02 03:56:29;;;;;;;125.47;48.63;;;;;;;-145.18;100.00;46711.19;5012526;28;20034;-76
2022/12/02 03:58:54;;;;;;;133.67;48.00;;;;;;;-145.18;100.00;46701.41;5011944;28;20037;-77
2022/12/02 04:01:21;;;;;;;132.43;48.83;;;;;;;-145.18;100.00;46711.19;5012569;28;20038;-77
2022/12/02 04:03:47;;;;;;;137.30;47.97;;;;;;;-145.18;100.00;46717.03;5012160;28;20054;-77
2022/12/02 04:06:12;;;;;;;129.20;46.67;;;;;;;-145.18;100.00;46713.13;5012184;28;20326;-75
2022/12/02 04:08:38;;;;;;;131.37;46.87;;;;;;;-145.18;100.00;46713.13;5012216;28;20469;-75
2022/12/02 04:11:04;;;;;;;134.60;47.83;;;;;;;-145.18;100.00;46713.13;5012008;28;20038;-75
2022/12/02 04:13:30;;;;;;;125.97;44.40;;;;;;;-145.18;100.00;46715.09;5011076;28;20038;-75
2022/12/02 04:15:55;;;;;;;121.43;41.57;;;;;;;-145.18;100.00;46715.09;5012094;28;20040;-77
2022/12/02 04:18:20;;;;;;;121.30;43.00;;;;;;;-145.18;100.00;46711.19;4999690;28;20038;-77
2022/12/02 04:20:46;;;;;;;119.73;40.80;;;;;;;-145.18;100.00;46719.00;4992604;28;20070;-77
2022/12/02 04:23:11;;;;;;;130.27;43.40;;;;;;;-145.18;100.00;46715.09;4991850;28;20038;-77
2022/12/02 04:25:37;;;;;;;123.37;42.30;;;;;;;-145.18;100.00;46715.09;4992530;28;20042;-77
2022/12/02 04:28:02;;;;;;;116.33;42.50;;;;;;;-145.18;100.00;46713.13;4991910;28;20046;-77
2022/12/02 04:30:28;;;;;;;114.23;39.47;;;;;;;-145.18;100.00;46720.94;4992511;28;20034;-77
2022/12/02 04:32:53;;;;;;;109.43;39.33;;;;;;;-145.18;100.00;46715.09;4991914;28;20085;-77
2022/12/02 04:35:19;;;;;;;122.10;38.93;;;;;;;-145.18;100.00;46722.91;4992218;28;20034;-77
2022/12/02 04:37:44;;;;;;;115.20;40.77;;;;;;;-145.18;100.00;46717.03;4992028;28;20038;-77
2022/12/02 04:40:10;;;;;;;113.57;40.17;;;;;;;-145.18;100.00;46722.91;4992067;28;20502;-77
2022/12/02 04:42:35;;;;;;;109.17;38.40;;;;;;;-145.18;100.00;46719.00;4990873;28;20073;-77
2022/12/02 04:45:01;;;;;;;109.03;37.63;;;;;;;-145.18;100.00;46719.00;4990820;28;20300;-77
2022/12/02 04:47:26;;;;;;;108.67;38.50;;;;;;;-145.18;100.00;46720.94;4990540;28;20042;-77
2022/12/02 04:49:52;;;;;;;108.23;37.80;;;;;;;-145.18;100.00;46717.03;4991987;28;20435;-77
2022/12/02 04:52:17;;;;;;;108.73;36.30;;;;;;;-145.18;100.00;46719.00;4991760;28;20034;-77
2022/12/02 04:54:42;;;;;;;109.43;38.67;;;;;;;-145.18;100.00;46719.00;4991939;28;20625;-77
2022/12/02 04:57:08;;;;;;;114.80;36.73;;;;;;;-145.18;100.00;46724.84;4991632;28;20520;-77
2022/12/02 04:59:33;;;;;;;98.70;35.67;;;;;;;-145.18;100.00;46724.84;4990630;28;20121;-77
2022/12/02 05:01:59;;;;;;;102.67;36.67;;;;;;;-145.18;100.00;46722.91;4991492;28;20157;-78
2022/12/02 05:04:24;;;;;;;102.27;33.97;;;;;;;-145.18;100.00;46722.91;4991881;28;20034;-77
2022/12/02 05:06:50;;;;;;;100.67;35.13;;;;;;;-145.18;100.00;46719.00;4974152;28;20437;-77
2022/12/02 05:09:15;;;;;;;101.60;33.70;;;;;;;-145.18;100.00;46722.91;4990749;28;20041;-77
2022/12/02 05:11:40;;;;;;;92.77;32.30;;;;;;;-145.18;100.00;46724.84;4991877;28;20041;-77
2022/12/02 05:14:06;;;;;;;86.67;31.53;;;;;;;-145.18;100.00;46724.84;4991356;28;20042;-77
2022/12/02 05:16:31;;;;;;;99.83;31.87;;;;;;;-145.18;100.00;46724.84;4991510;28;20041;-77
2022/12/02 05:18:56;;;;;;;91.60;31.90;;;;;;;-145.18;100.00;46724.84;4991251;28;20044;-77
2022/12/02 05:21:22;;;;;;;82.27;30.77;;;;;;;-145.18;100.00;46726.81;4991812;28;20101;-77
2022/12/02 05:23:47;;;;;;;87.03;30.30;;;;;;;-145.18;100.00;46728.75;4991107;28;20399;-77
2022/12/02 05:26:12;;;;;;;91.80;31.00;;;;;;;-145.18;100.00;46734.63;5010770;28;20144;-77
2022/12/02 05:28:39;;;;;;;78.20;27.23;;;;;;;-145.18;100.00;46734.63;5010804;28;20494;-77
2022/12/02 05:31:04;;;;;;;83.83;29.03;;;;;;;-145.18;100.00;46732.66;5010763;28;20346;-77
2022/12/02 05:33:30;;;;;;;87.90;29.10;;;;;;;-145.18;100.00;46728.75;5010796;28;20069;-78
2022/12/02 05:35:55;;;;;;;79.53;26.27;;;;;;;-145.18;100.00;46728.75;5010710;28;20052;-78
2022/12/02 05:38:21;;;;;;;73.43;27.07;;;;;;;-145.18;100.00;46734.63;5010648;28;20041;-78
2022/12/02 05:40:46;;;;;;;79.13;26.30;;;;;;;-145.18;100.00;46732.66;5010832;28;20470;-78
2022/12/02 05:43:20;;;;;;;75.40;25.93;;;;;;;-145.18;100.00;46732.66;5010651;28;20077;-78
2022/12/02 05:45:46;;;;;;;77.47;26.63;;;;;;;-145.18;100.00;46738.53;5010790;28;20043;-78
2022/12/02 05:48:13;;;;;;;73.33;27.47;;;;;;;-145.18;100.00;46726.81;5010262;28;20295;-76
2022/12/02 05:50:40;;;;;;;70.97;24.83;;;;;;;-145.18;100.00;46736.56;5010988;28;20030;-76
2022/12/02 05:53:11;;;;;;;76.10;25.70;;;;;;;-145.18;100.00;46734.63;5009966;28;20278;-78
2022/12/02 05:55:37;;;;;;;74.00;26.50;;;;;;;-145.18;100.00;46728.75;5010668;28;20624;-78
2022/12/02 05:58:06;;;;;;;73.90;26.20;;;;;;;-145.18;100.00;46736.56;5010478;28;20277;-78
2022/12/02 06:00:31;;;;;;;83.47;28.40;;;;;;;-145.18;100.00;46736.56;5009496;28;20116;-77
2022/12/02 06:03:05;;;;;;;79.20;27.53;;;;;;;-145.18;100.00;46736.56;5010136;28;20851;-77
2022/12/02 06:05:39;;;;;;;74.63;25.13;;;;;;;-145.18;100.00;46734.63;5010612;28;20045;-78
2022/12/02 06:08:18;;;;;;;77.57;25.13;;;;;;;-145.18;100.00;46736.56;5010262;28;20322;-78
2022/12/02 06:10:52;;;;;;;73.57;27.10;;;;;;;-145.18;100.00;46736.56;5010263;28;20783;-78
2022/12/02 06:13:30;;;;;;;73.90;25.53;;;;;;;-145.18;100.00;46736.56;5010398;28;20267;-78
2022/12/02 06:15:56;;;;;;;74.87;25.57;;;;;;;-145.18;100.00;46732.66;5010206;28;20268;-78
2022/12/02 06:18:27;;;;;;;82.63;28.47;;;;;;;-145.18;100.00;46734.63;5010273;28;20620;-78
2022/12/02 06:20:56;;;;;;;77.57;26.20;;;;;;;-145.18;100.00;46734.63;5012103;28;20267;-78
2022/12/02 06:23:22;;;;;;;69.60;26.93;;;;;;;-145.18;100.00;46740.47;5014340;28;20748;-78
2022/12/02 06:25:50;;;;;;;86.13;27.30;;;;;;;-145.18;100.00;46736.56;5014155;28;20264;-78
2022/12/02 06:28:25;;;;;;;76.87;26.90;;;;;;;-145.18;100.00;46734.63;5013755;28;20116;-78
2022/12/02 06:30:54;;;;;;;83.77;26.10;;;;;;;-145.18;100.00;46740.47;5014044;28;20752;-78
2022/12/02 06:33:40;;;;;;;87.10;28.40;;;;;;;-145.18;100.00;46736.56;5013975;28;20349;-78
2022/12/02 06:36:12;;;;;;;77.68;26.25;;;;;;;-145.18;100.00;46726.81;5013538;28;20355;-78
2022/12/02 06:38:48;;;;;;;86.37;27.73;;;;;;;-145.18;100.00;46732.66;5015576;28;20030;-78
2022/12/02 06:41:22;;;;;;;83.07;28.10;;;;;;;-145.18;100.00;46738.53;5013614;28;20271;-78
2022/12/02 06:46:36;;;;;;;88.07;27.13;;;;;;;-145.18;100.00;46736.56;4973411;28;20268;-78
2022/12/02 06:49:22;;;;;;;82.30;25.97;;;;;;;-145.18;100.00;46734.63;5001332;28;20322;-78
2022/12/02 06:51:54;;;;;;;79.25;24.08;;;;;;;-145.18;100.00;46734.63;5003674;28;20042;-78
2022/12/02 06:54:22;;;;;;;78.47;25.90;;;;;;;-145.18;100.00;46740.47;5007673;28;20026;-77
2022/12/02 06:56:49;;;;;;;85.60;28.57;;;;;;;-145.18;100.00;46736.56;5001365;28;20268;-77
2022/12/02 06:59:19;;;;;;;90.17;29.50;;;;;;;-145.18;100.00;46736.56;5001852;28;20739;-78
2022/12/02 07:01:45;;;;;;;78.60;26.77;;;;;;;-145.18;100.00;46734.63;5003488;28;20282;-78
2022/12/02 07:04:30;;;;;;;89.60;26.73;;;;;;;-145.18;100.00;46732.66;4999210;28;20279;-78
2022/12/02 07:07:11;;;;;;;81.18;27.30;;;;;;;-145.18;100.00;46734.63;5002321;28;20045;-78
2022/12/02 07:09:41;;;;;;;81.40;26.17;;;;;;;-145.18;100.00;46740.47;5002881;28;20398;-78
2022/12/02 07:12:14;;;;;;;80.80;26.07;;;;;;;-145.18;100.00;46734.63;5001067;28;20264;-77
2022/12/02 07:14:48;;;;;;;81.10;26.77;;;;;;;-145.18;100.00;46734.63;4993340;28;20299;-77
2022/12/02 07:17:33;;;;;;;82.03;25.63;;;;;;;-145.18;100.00;46728.75;4993748;28;20256;-78
2022/12/02 07:20:05;;;;;;;74.28;25.60;;;;;;;-145.18;100.00;46736.56;5013010;28;20263;-78
2022/12/02 07:22:35;;;;;;;77.13;24.23;;;;;;;-145.18;100.00;46734.63;5012672;28;20643;-78
2022/12/02 07:25:11;;;;;;;68.70;24.37;;;;;;;-145.18;100.00;46734.63;5012873;28;20278;-77
2022/12/02 07:27:38;;;;;;;;;;;;;;;-145.18;100.00;46734.63;4992082;28;20331;-78
2022/12/02 07:30:27;;;;;;;66.80;21.67;;;;;;;-145.18;100.00;46728.75;5003177;28;19982;-78
2022/12/02 07:32:52;;;;;;;77.63;23.63;;;;;;;-145.18;100.00;46738.53;5031589;28;20259;-77
2022/12/02 07:35:18;;;;;;;66.00;22.17;;;;;;;-145.18;100.00;46732.66;5032845;28;20349;-77
2022/12/02 07:37:44;;;;;;;66.53;21.93;;;;;;;-145.18;100.00;46736.56;5032335;28;20123;-77
2022/12/02 07:40:11;;;;;;;67.23;21.90;;;;;;;-145.18;100.00;46732.66;5032031;28;20743;-77
2022/12/02 07:42:37;;;;;;;62.10;21.10;;;;;;;-145.18;100.00;46736.56;5032164;28;20029;-78
2022/12/02 07:45:03;;;;;;;63.60;22.87;;;;;;;-145.18;100.00;46726.81;5032547;28;20770;-77
2022/12/02 07:47:28;;;;;;;63.07;22.67;;;;;;;-145.18;100.00;46728.75;5032469;28;20041;-77
2022/12/02 07:49:53;;;;;;;58.43;20.63;;;;;;;-145.18;100.00;46736.56;5031905;28;20028;-77
2022/12/02 07:52:19;;;;;;;57.43;19.90;;;;;;;-145.18;100.00;46728.75;5032737;28;20164;-77
2022/12/02 07:54:44;;;;;;;56.47;20.37;;;;;;;-145.18;100.00;46726.81;5032089;28;20494;-77
2022/12/02 07:57:09;;;;;;;55.80;20.97;;;;;;;-145.18;100.00;46722.91;5032227;28;20528;-77
2022/12/02 07:59:34;;;;;;;52.63;20.27;;;;;;;-145.18;100.00;46722.91;5032150;28;20033;-77
2022/12/02 08:02:00;;;;;;;51.50;20.40;;;;;;;-145.18;100.00;46709.22;5032060;28;20056;-77
2022/12/02 08:04:25;;;;;;;60.83;22.40;;;;;;;-145.18;100.00;46705.31;5031647;28;20114;-77
2022/12/02 08:06:50;;;;;;;59.93;22.93;;;;;;;-145.18;100.00;46711.19;5032083;28;20509;-78
2022/12/02 08:09:16;;;;;;;64.53;22.37;;;;;;;-145.18;100.00;46703.38;5031787;28;20120;-77
2022/12/02 08:11:41;;;;;;;52.93;20.83;;;;;;;-145.18;100.00;46703.38;5032184;28;20112;-77
2022/12/02 08:14:07;;;;;;;52.83;20.60;;;;;;;-145.18;100.00;46703.38;5013785;28;20033;-77
2022/12/02 08:16:32;;;;;;;55.73;20.23;;;;;;;-145.18;100.00;46703.38;5031983;28;20433;-77
2022/12/02 08:19:00;;;;;;;51.97;20.10;;;;;;;-145.18;100.00;46697.50;5031419;28;20032;-75
2022/12/02 08:21:26;;;;;;;58.00;21.03;;;;;;;-145.18;100.00;46693.59;5031947;28;20036;-75
2022/12/02 08:23:51;;;;;;;49.33;20.30;;;;;;;-145.18;100.00;46681.88;5031543;28;20631;-75
2022/12/02 08:26:17;;;;;;;53.33;19.67;;;;;;;-145.18;100.00;46677.97;5031619;28;20271;-76
2022/12/02 08:28:42;;;;;;;56.23;20.33;;;;;;;-145.18;100.00;46677.97;5031465;28;20129;-77
2022/12/02 08:31:07;;;;;;;53.70;20.03;;;;;;;-145.18;100.00;46666.25;5031533;28;20152;-77
2022/12/02 08:33:33;;;;;;;59.37;22.17;;;;;;;-145.18;100.00;46660.41;5031714;28;20824;-77
2022/12/02 08:35:58;;;;;;;55.63;19.93;;;;;;;-145.18;100.00;46662.34;5031333;28;20038;-77
2022/12/02 08:38:24;;;;;;;56.40;22.23;;;;;;;-145.18;100.00;46658.44;5031508;28;20120;-77
2022/12/02 08:40:49;;;;;;;53.23;21.63;;;;;;;-145.18;100.00;46666.25;5031512;28;20029;-77
2022/12/02 08:43:14;;;;;;;52.73;20.37;;;;;;;-145.18;100.00;46664.31;5030578;28;20555;-77
2022/12/02 08:45:40;;;;;;;54.70;21.83;;;;;;;-145.18;100.00;46664.31;5031007;28;20034;-77
2022/12/02 08:48:05;;;;;;;55.17;20.67;;;;;;;-145.18;100.00;46668.22;5024738;28;20125;-77
2022/12/02 08:50:30;;;;;;;52.80;21.47;;;;;;;-145.18;100.00;46664.31;4993785;28;20053;-77
2022/12/02 08:52:56;;;;;;;53.90;21.80;;;;;;;-145.18;100.00;46662.34;4998384;28;20034;-77
2022/12/02 08:55:21;;;;;;;51.87;20.63;;;;;;;-145.18;100.00;46662.34;4997023;28;20037;-77
2022/12/02 08:57:46;;;;;;;50.83;21.43;;;;;;;-145.18;100.00;46666.25;4991541;28;20061;-77
2022/12/02 09:00:13;;;;;;;54.77;20.40;;;;;;;-145.18;100.00;46670.16;4991676;28;20038;-77
2022/12/02 09:02:38;;;;;;;55.27;22.40;;;;;;;-145.18;100.00;46668.22;4991760;28;20391;-77
2022/12/02 09:05:04;;;;;;;57.23;21.63;;;;;;;-145.18;100.00;46676.03;4991246;28;20296;-77
2022/12/02 09:07:29;;;;;;;53.40;20.43;;;;;;;-145.18;100.00;46672.13;4991775;28;20494;-77
2022/12/02 09:09:54;;;;;;;49.80;20.27;;;;;;;-145.18;100.00;46687.75;4991056;28;20050;-77
2022/12/02 09:12:20;;;;;;;57.97;21.37;;;;;;;-145.18;100.00;46691.66;4991574;28;20475;-77
2022/12/02 09:14:45;;;;;;;58.23;22.73;;;;;;;-145.18;100.00;46701.41;4991408;28;20435;-76
2022/12/02 09:17:11;;;;;;;53.80;21.80;;;;;;;-145.18;100.00;46703.38;4991345;28;20042;-77
2022/12/02 09:19:36;;;;;;;57.37;22.80;;;;;;;-145.18;100.00;46703.38;4991442;28;20513;-77
2022/12/02 09:22:01;;;;;;;57.37;22.63;;;;;;;-145.18;100.00;46719.00;4973243;28;20040;-78
2022/12/02 09:24:27;;;;;;;57.43;23.43;;;;;;;-145.18;100.00;46717.03;4998449;28;20391;-77
2022/12/02 09:26:52;;;;;;;56.10;21.57;;;;;;;-145.18;100.00;46722.91;5010422;28;20026;-77
2022/12/02 09:29:18;;;;;;;52.93;20.50;;;;;;;-145.18;100.00;46720.94;5010837;28;20045;-78
2022/12/02 09:31:43;;;;;;;53.53;23.00;;;;;;;-145.18;100.00;46720.94;5030721;28;20109;-79
2022/12/02 09:34:08;;;;;;;56.87;22.20;;;;;;;-145.18;100.00;46711.19;5030274;28;20371;-78
2022/12/02 09:36:34;;;;;;;56.07;22.53;;;;;;;-145.18;100.00;46711.19;5030370;28;20122;-79
2022/12/02 09:38:59;;;;;;;57.00;22.63;;;;;;;-145.18;100.00;46711.19;5030179;28;20068;-78
2022/12/02 09:41:24;;;;;;;54.27;23.53;;;;;;;-145.18;100.00;46709.22;5030056;28;20040;-78
2022/12/02 09:43:50;;;;;;;52.27;21.00;;;;;;;-145.18;100.00;46693.59;5030349;28;20494;-78
2022/12/02 09:46:15;;;;;;;58.97;22.93;;;;;;;-145.18;100.00;46687.75;5030340;28;20469;-78
2022/12/02 09:48:41;;;;;;;54.43;22.40;;;;;;;-145.18;100.00;46687.75;5029881;28;20032;-78
2022/12/02 09:51:09;;;;;;;50.13;21.50;;;;;;;-145.18;100.00;46676.03;5030173;28;20037;-78
2022/12/02 09:53:38;;;;;;;58.53;24.33;;;;;;;-145.18;100.00;46677.97;5029919;28;20037;-78
2022/12/02 09:56:04;;;;;;;54.90;23.17;;;;;;;-145.18;100.00;46658.44;5031184;28;20262;-79
2022/12/02 09:58:30;;;;;;;55.17;23.47;;;;;;;-145.18;100.00;46654.53;5032846;28;20263;-78
2022/12/02 10:00:55;;;;;;;50.97;19.77;;;;;;;-145.18;100.00;46627.19;5034073;28;20265;-78
2022/12/02 10:03:26;;;;;;;51.20;22.40;;;;;;;-145.18;100.00;46615.47;5034074;28;20046;-78
2022/12/02 10:05:53;;;;;;;54.37;23.43;;;;;;;-145.18;100.00;46609.59;5027322;28;20502;-78
2022/12/02 10:08:24;;;;;;;53.03;21.67;;;;;;;-145.18;100.00;46613.50;5013799;28;20322;-78
2022/12/02 10:10:53;;;;;;;50.40;21.43;;;;;;;-145.18;100.00;46607.66;5014616;28;20324;-78
2022/12/02 10:13:19;;;;;;;52.53;21.70;;;;;;;-145.18;100.00;46601.78;5013998;28;20259;-78
2022/12/02 10:15:46;;;;;;;52.03;20.97;;;;;;;-145.18;100.00;46595.94;5014239;28;20285;-78
2022/12/02 10:18:22;;;;;;;48.17;20.40;;;;;;;-145.18;100.00;46593.97;5013975;28;20371;-78
2022/12/02 10:20:49;;;;;;;52.53;21.60;;;;;;;-145.18;100.00;46595.94;5014159;28;20255;-79
2022/12/02 10:23:14;;;;;;;46.50;19.70;;;;;;;-145.18;100.00;46595.94;5013930;28;20282;-78
2022/12/02 10:26:05;;;;;;;45.73;20.93;;;;;;;-145.18;100.00;46582.25;5013988;28;20636;-78
2022/12/02 10:28:33;;;;;;;51.50;22.70;;;;;;;-145.18;100.00;46588.13;5013332;28;20139;-78
2022/12/02 10:31:03;;;;;;;47.93;20.80;;;;;;;-145.18;100.00;46588.13;5013861;28;20264;-78
2022/12/02 10:33:32;;;;;;;51.87;21.87;;;;;;;-145.18;100.00;46588.13;5013860;28;20815;-78
2022/12/02 10:35:59;;;;;;;56.40;22.63;;;;;;;-145.18;100.00;46584.22;5013742;28;20282;-78
2022/12/02 10:38:38;;;;;;;50.30;21.07;;;;;;;-145.18;100.00;46586.16;5014086;28;20268;-78
2022/12/02 10:41:23;;;;;;;54.53;22.00;;;;;;;-145.18;100.00;46593.97;5013075;28;20303;-78
2022/12/02 10:43:52;;;;;;;44.28;19.85;;;;;;;-145.18;100.00;46597.88;5013440;28;20279;-78
2022/12/02 10:46:19;;;;;;;51.23;20.77;;;;;;;-145.18;100.00;46592.03;4995733;28;20609;-78
2022/12/02 10:48:45;;;;;;;45.97;18.73;;;;;;;-145.18;100.00;46599.84;5013590;28;20378;-78
2022/12/02 10:51:15;;;;;;;48.47;21.90;;;;;;;-145.18;100.00;46597.88;4995741;28;20309;-78
2022/12/02 10:53:42;;;;;;;48.60;20.70;;;;;;;-145.18;100.00;46595.94;5013080;28;20759;-79
2022/12/02 10:56:15;;;;;;;47.57;20.10;;;;;;;-145.18;100.00;46597.88;5013434;28;20342;-79
2022/12/02 10:58:41;;;;;;;52.37;20.30;;;;;;;-145.18;100.00;46597.88;5012997;28;20671;-77
2022/12/02 11:01:09;;;;;;;53.23;21.07;;;;;;;-145.18;100.00;46597.88;5013002;28;20268;-78
2022/12/02 11:03:35;;;;;;;47.47;20.80;;;;;;;-145.18;100.00;46601.78;5012245;28;20042;-79